createdAt,value
2023-02-04T00:01:49.544Z,6.64
2023-02-04T00:04:54.042Z,6.64
2023-02-04T00:07:58.608Z,6.66
2023-02-04T00:11:03.104Z,6.68
2023-02-04T00:14:08.077Z,6.68
2023-02-04T00:17:13.117Z,6.65
2023-02-04T00:20:19.697Z,6.65
2023-02-04T00:23:24.197Z,6.66
2023-02-04T00:26:28.746Z,6.70
2023-02-04T00:29:33.329Z,6.73
2023-02-04T00:32:37.920Z,6.74
2023-02-04T00:35:42.600Z,6.76
2023-02-04T00:38:47.034Z,6.81
2023-02-04T00:41:51.503Z,6.82
2023-02-04T00:44:56.074Z,6.83
2023-02-04T00:48:00.599Z,6.86
2023-02-04T00:51:05.248Z,6.86
2023-02-04T00:54:09.777Z,6.88
2023-02-04T00:57:14.251Z,6.89
2023-02-04T01:00:19.233Z,6.89
2023-02-04T01:03:23.747Z,6.88
2023-02-04T01:06:28.367Z,6.88
2023-02-04T01:09:32.917Z,6.88
2023-02-04T01:12:37.442Z,6.87
2023-02-04T01:15:42.066Z,6.92
2023-02-04T01:18:46.548Z,6.94
2023-02-04T01:21:51.202Z,6.98
2023-02-04T01:24:55.695Z,7.04
2023-02-04T01:28:00.298Z,7.10
2023-02-04T01:31:04.994Z,7.12
2023-02-04T01:34:09.610Z,7.13
2023-02-04T01:37:14.100Z,7.13
2023-02-04T01:40:18.898Z,7.11
2023-02-04T01:43:23.761Z,7.09
2023-02-04T01:46:28.232Z,7.09
2023-02-04T01:49:32.954Z,7.08
2023-02-04T01:52:40.293Z,7.01
2023-02-04T01:55:44.813Z,6.96
2023-02-04T01:58:49.860Z,6.94
2023-02-04T02:01:54.429Z,6.89
2023-02-04T02:04:58.957Z,6.85
2023-02-04T02:08:04.372Z,6.81
2023-02-04T02:11:08.930Z,6.86
2023-02-04T02:14:13.857Z,6.91
2023-02-04T02:17:18.415Z,6.96
2023-02-04T02:20:24.246Z,6.98
2023-02-04T02:23:34.125Z,6.95
2023-02-04T02:26:38.748Z,6.98
2023-02-04T02:29:43.774Z,7.04
2023-02-04T02:32:49.102Z,7.08
2023-02-04T02:35:53.733Z,7.13
2023-02-04T02:39:00.164Z,7.17
2023-02-04T02:42:05.036Z,7.21
2023-02-04T02:45:14.988Z,7.25
2023-02-04T02:48:19.526Z,7.26
2023-02-04T02:51:24.164Z,7.28
2023-02-04T02:54:29.977Z,7.29
2023-02-04T02:57:34.493Z,7.27
2023-02-04T03:00:39.027Z,7.22
2023-02-04T03:03:44.780Z,7.16
2023-02-04T03:06:49.875Z,7.05
2023-02-04T03:09:54.570Z,6.97
2023-02-04T03:12:59.516Z,6.95
2023-02-04T03:16:04.546Z,6.93
2023-02-04T03:19:09.526Z,6.91
2023-02-04T03:22:14.052Z,6.92
2023-02-04T03:25:18.876Z,6.96
2023-02-04T03:28:23.336Z,6.99
2023-02-04T03:31:27.978Z,6.98
2023-02-04T03:34:32.630Z,6.97
2023-02-04T03:37:37.252Z,6.97
2023-02-04T03:40:41.804Z,6.99
2023-02-04T03:43:46.298Z,6.93
2023-02-04T03:46:55.529Z,6.84
2023-02-04T03:50:00.261Z,6.78
2023-02-04T03:53:04.812Z,6.76
2023-02-04T03:56:10.490Z,6.76
2023-02-04T03:59:14.976Z,6.78
2023-02-04T04:02:19.512Z,6.81
2023-02-04T04:05:23.969Z,6.86
2023-02-04T04:08:28.413Z,6.83
2023-02-04T04:11:32.943Z,6.79
2023-02-04T04:14:37.859Z,6.78
2023-02-04T04:17:42.349Z,6.76
2023-02-04T04:20:46.810Z,6.63
2023-02-04T04:23:51.361Z,6.48
2023-02-04T04:26:55.863Z,6.41
2023-02-04T04:30:00.415Z,6.34
2023-02-04T04:33:05.027Z,6.24
2023-02-04T04:36:09.993Z,6.16
2023-02-04T04:39:14.597Z,6.08
2023-02-04T04:42:19.083Z,6.03
2023-02-04T04:45:23.532Z,5.98
2023-02-04T04:48:28.321Z,5.90
2023-02-04T04:51:33.079Z,5.82
2023-02-04T04:54:37.643Z,5.75
2023-02-04T04:57:42.135Z,5.70
2023-02-04T05:00:46.682Z,5.40
2023-02-04T05:03:51.317Z,5.08
2023-02-04T05:06:55.821Z,4.83
2023-02-04T05:10:00.426Z,4.53
2023-02-04T05:13:04.926Z,4.31
2023-02-04T05:16:12.087Z,4.11
2023-02-04T05:19:16.635Z,3.74
2023-02-04T05:22:21.106Z,3.44
2023-02-04T05:25:25.720Z,3.18
2023-02-04T05:28:30.281Z,3.05
2023-02-04T05:31:34.788Z,3.06
2023-02-04T05:34:40.073Z,2.92
2023-02-04T05:37:44.564Z,2.75
2023-02-04T05:40:49.135Z,2.70
2023-02-04T05:43:53.668Z,2.63
2023-02-04T05:46:58.362Z,2.49
2023-02-04T05:50:02.971Z,2.31
2023-02-04T05:53:07.524Z,2.23
2023-02-04T05:56:12.113Z,2.22
2023-02-04T05:59:16.681Z,2.20
2023-02-04T06:02:21.221Z,2.19
2023-02-04T06:05:25.699Z,2.22
2023-02-04T06:08:30.240Z,2.27
2023-02-04T06:11:34.868Z,2.29
2023-02-04T06:14:39.496Z,2.31
2023-02-04T06:17:44.029Z,2.33
2023-02-04T06:20:48.618Z,2.24
2023-02-04T06:23:53.182Z,2.22
2023-02-04T06:26:58.024Z,2.21
2023-02-04T06:30:02.494Z,2.30
2023-02-04T06:33:07.040Z,2.24
2023-02-04T06:36:11.545Z,2.20
2023-02-04T06:39:16.012Z,2.19
2023-02-04T06:42:20.553Z,2.14
2023-02-04T06:45:25.019Z,2.15
2023-02-04T06:48:31.124Z,2.14
2023-02-04T06:51:35.827Z,2.12
2023-02-04T06:54:40.341Z,2.19
2023-02-04T06:57:45.102Z,2.20
2023-02-04T07:00:49.637Z,2.18
2023-02-04T07:03:54.183Z,2.14
2023-02-04T07:06:58.786Z,2.03
2023-02-04T07:10:03.275Z,1.99
2023-02-04T07:13:07.718Z,2.11
2023-02-04T07:16:12.347Z,2.09
2023-02-04T07:19:16.992Z,2.14
2023-02-04T07:22:21.514Z,2.04
2023-02-04T07:25:26.066Z,2.03
2023-02-04T07:28:31.617Z,2.10
2023-02-04T07:31:36.210Z,2.08
2023-02-04T07:34:40.769Z,2.06
2023-02-04T07:37:45.246Z,2.03
2023-02-04T07:40:49.994Z,1.99
2023-02-04T07:43:54.492Z,1.94
2023-02-04T07:46:59.039Z,1.92
2023-02-04T07:50:03.601Z,1.94
2023-02-04T07:53:08.080Z,1.87
2023-02-04T07:56:12.608Z,1.86
2023-02-04T07:59:17.129Z,1.85
2023-02-04T08:02:21.704Z,1.88
2023-02-04T08:05:26.325Z,1.89
2023-02-04T08:08:30.842Z,1.99
2023-02-04T08:11:35.400Z,2.06
2023-02-04T08:14:39.847Z,2.06
2023-02-04T08:17:44.486Z,2.12
2023-02-04T08:20:49.049Z,2.12
2023-02-04T08:23:53.644Z,2.19
2023-02-04T08:26:58.401Z,2.22
2023-02-04T08:30:02.947Z,2.19
2023-02-04T08:33:07.629Z,2.18
2023-02-04T08:36:12.188Z,2.06
2023-02-04T08:39:16.629Z,2.18
2023-02-04T08:42:21.324Z,2.24
2023-02-04T08:45:25.870Z,2.20
2023-02-04T08:48:30.330Z,2.27
2023-02-04T08:51:35.014Z,2.36
2023-02-04T08:54:39.494Z,2.36
2023-02-04T08:57:44.040Z,2.36
2023-02-04T09:00:48.657Z,2.48
2023-02-04T09:03:53.324Z,2.64
2023-02-04T09:06:57.865Z,2.86
2023-02-04T09:10:02.320Z,2.83
2023-02-04T09:13:09.260Z,2.94
2023-02-04T09:16:14.524Z,2.96
2023-02-04T09:19:24.146Z,3.08
2023-02-04T09:22:28.696Z,3.14
2023-02-04T09:25:33.216Z,3.28
2023-02-04T09:28:37.813Z,3.32
2023-02-04T09:31:42.419Z,3.35
2023-02-04T09:34:46.980Z,3.31
2023-02-04T09:37:51.527Z,3.23
2023-02-04T09:40:58.800Z,3.25
2023-02-04T09:44:03.476Z,3.26
2023-02-04T09:47:07.970Z,3.30
2023-02-04T09:50:15.499Z,3.28
2023-02-04T09:53:21.385Z,3.24
2023-02-04T09:56:26.351Z,3.25
2023-02-04T09:59:30.852Z,3.31
2023-02-04T10:02:36.383Z,3.39
2023-02-04T10:05:40.872Z,3.40
2023-02-04T10:08:46.129Z,3.45
2023-02-04T10:11:50.814Z,3.48
2023-02-04T10:14:55.417Z,3.62
2023-02-04T10:18:02.987Z,3.69
2023-02-04T10:21:14.314Z,3.74
2023-02-04T10:24:20.026Z,3.67
2023-02-04T10:27:24.605Z,3.56
2023-02-04T10:30:30.271Z,3.51
2023-02-04T10:33:37.091Z,3.61
2023-02-04T10:36:43.424Z,3.68
2023-02-04T10:39:48.990Z,3.68
2023-02-04T10:42:53.539Z,3.60
2023-02-04T10:45:59.469Z,3.56
2023-02-04T10:49:04.950Z,3.60
2023-02-04T10:52:15.192Z,3.52
2023-02-04T10:55:21.094Z,3.58
2023-02-04T10:58:28.048Z,3.66
2023-02-04T11:01:32.980Z,3.72
2023-02-04T11:04:37.533Z,3.74
2023-02-04T11:07:42.243Z,3.61
2023-02-04T11:10:46.883Z,3.58
2023-02-04T11:14:00.888Z,3.46
2023-02-04T11:17:05.513Z,3.36
2023-02-04T11:20:31.991Z,3.36
2023-02-04T11:23:39.721Z,3.32
2023-02-04T11:26:44.855Z,3.15
2023-02-04T11:29:49.381Z,3.16
2023-02-04T11:33:03.236Z,3.12
2023-02-04T11:36:09.718Z,2.33
2023-02-04T11:39:18.144Z,1.86
2023-02-04T11:42:23.522Z,2.05
2023-02-04T11:45:28.978Z,2.30
2023-02-04T11:48:33.616Z,2.55
2023-02-04T11:51:38.122Z,2.70
2023-02-04T11:54:42.686Z,2.43
2023-02-04T11:57:47.744Z,1.92
2023-02-04T12:00:52.235Z,1.67
2023-02-04T12:04:00.047Z,1.88
2023-02-04T12:07:05.692Z,2.49
2023-02-04T12:10:26.239Z,2.85
2023-02-04T12:13:31.169Z,2.32
2023-02-04T12:16:43.078Z,1.78
2023-02-04T12:19:47.729Z,1.41
2023-02-04T12:22:52.278Z,1.22
2023-02-04T12:25:56.988Z,1.13
2023-02-04T12:29:03.459Z,1.48
2023-02-04T12:32:08.024Z,1.72
2023-02-04T12:35:12.609Z,1.37
2023-02-04T12:38:18.038Z,0.97
2023-02-04T12:41:23.270Z,0.71
2023-02-04T12:44:27.803Z,0.79
2023-02-04T12:47:32.366Z,1.30
2023-02-04T12:50:36.869Z,1.53
2023-02-04T12:53:41.377Z,1.15
2023-02-04T12:56:45.902Z,0.73
2023-02-04T12:59:50.616Z,0.46
2023-02-04T13:02:56.154Z,0.26
2023-02-04T13:06:00.557Z,0.48
2023-02-04T13:09:05.125Z,0.93
2023-02-04T13:12:09.709Z,1.26
2023-02-04T13:15:14.458Z,1.53
2023-02-04T13:18:19.780Z,1.25
2023-02-04T13:21:24.240Z,0.75
2023-02-04T13:24:29.113Z,0.44
2023-02-04T13:27:33.615Z,0.21
2023-02-04T13:30:38.186Z,0.04
2023-02-04T13:33:42.659Z,-0.07
2023-02-04T13:36:47.164Z,0.13
2023-02-04T13:39:51.612Z,0.74
2023-02-04T13:42:56.268Z,1.06
2023-02-04T13:46:02.974Z,0.85
2023-02-04T13:49:07.562Z,0.60
2023-02-04T13:52:12.193Z,0.37
2023-02-04T13:55:16.924Z,0.21
2023-02-04T13:58:21.450Z,0.16
2023-02-04T14:01:26.092Z,0.14
2023-02-04T14:04:30.590Z,0.17
2023-02-04T14:07:35.295Z,0.56
2023-02-04T14:10:39.731Z,1.12
2023-02-04T14:13:44.301Z,1.54
2023-02-04T14:16:48.793Z,1.61
2023-02-04T14:19:53.344Z,1.24
2023-02-04T14:22:57.831Z,0.86
2023-02-04T14:26:02.480Z,0.60
2023-02-04T14:29:07.229Z,0.41
2023-02-04T14:32:11.691Z,0.27
2023-02-04T14:35:16.668Z,0.16
2023-02-04T14:38:21.295Z,0.28
2023-02-04T14:41:26.509Z,0.77
2023-02-04T14:44:31.045Z,1.21
2023-02-04T14:47:35.661Z,1.52
2023-02-04T14:50:40.322Z,1.63
2023-02-04T14:53:48.274Z,1.18
2023-02-04T14:56:53.331Z,0.77
2023-02-04T14:59:57.999Z,0.52
2023-02-04T15:03:02.621Z,0.35
2023-02-04T15:06:07.800Z,0.21
2023-02-04T15:09:12.331Z,0.29
2023-02-04T15:12:16.816Z,0.78
2023-02-04T15:15:21.480Z,1.19
2023-02-04T15:18:25.963Z,1.44
2023-02-04T15:21:30.510Z,1.65
2023-02-04T15:24:35.116Z,1.81
2023-02-04T15:27:39.690Z,1.88
2023-02-04T15:30:44.292Z,1.49
2023-02-04T15:33:49.030Z,1.02
2023-02-04T15:36:53.542Z,0.70
2023-02-04T15:39:58.073Z,0.45
2023-02-04T15:43:02.542Z,0.38
2023-02-04T15:46:07.142Z,0.79
2023-02-04T15:49:12.014Z,1.14
2023-02-04T15:52:24.649Z,1.37
2023-02-04T15:55:30.075Z,1.57
2023-02-04T15:58:34.724Z,1.73
2023-02-04T16:01:39.313Z,1.88
2023-02-04T16:04:45.478Z,1.99
2023-02-04T16:07:50.265Z,2.03
2023-02-04T16:10:55.323Z,2.06
2023-02-04T16:14:00.166Z,2.14
2023-02-04T16:17:06.964Z,2.22
2023-02-04T16:20:12.548Z,2.31
2023-02-04T16:23:17.117Z,2.28
2023-02-04T16:26:21.578Z,2.27
2023-02-04T16:29:26.984Z,2.24
2023-02-04T16:32:33.648Z,2.23
2023-02-04T16:35:56.439Z,2.21
2023-02-04T16:39:02.867Z,2.19
2023-02-04T16:42:09.001Z,2.20
2023-02-04T16:45:13.671Z,2.10
2023-02-04T16:48:18.474Z,1.44
2023-02-04T16:51:23.062Z,0.84
2023-02-04T16:54:27.605Z,0.58
2023-02-04T16:57:32.137Z,0.92
2023-02-04T17:00:38.827Z,1.33
2023-02-04T17:03:43.301Z,1.62
2023-02-04T17:06:47.810Z,1.80
2023-02-04T17:09:52.275Z,1.94
2023-02-04T17:12:57.369Z,2.02
2023-02-04T17:16:01.965Z,2.09
2023-02-04T17:19:06.795Z,2.15
2023-02-04T17:22:11.292Z,2.19
2023-02-04T17:25:15.913Z,2.22
2023-02-04T17:28:20.509Z,2.22
2023-02-04T17:31:25.003Z,2.24
2023-02-04T17:34:29.849Z,2.31
2023-02-04T17:37:34.356Z,2.36
2023-02-04T17:40:38.849Z,2.39
2023-02-04T17:43:43.504Z,2.41
2023-02-04T17:46:48.282Z,2.48
2023-02-04T17:49:52.788Z,2.51
2023-02-04T17:52:58.063Z,2.48
2023-02-04T17:56:02.669Z,2.42
2023-02-04T17:59:10.570Z,2.30
2023-02-04T18:02:20.038Z,2.23
2023-02-04T18:05:27.093Z,2.18
2023-02-04T18:08:37.483Z,2.12
2023-02-04T18:11:41.969Z,2.12
2023-02-04T18:14:46.965Z,2.12
2023-02-04T18:17:52.980Z,2.13
2023-02-04T18:21:01.406Z,2.17
2023-02-04T18:24:08.337Z,2.16
2023-02-04T18:27:17.061Z,2.19
2023-02-04T18:30:22.528Z,2.23
2023-02-04T18:33:28.189Z,2.21
2023-02-04T18:36:34.008Z,2.15
2023-02-04T18:39:38.517Z,2.10
2023-02-04T18:42:43.690Z,2.07
2023-02-04T18:45:48.327Z,2.01
2023-02-04T18:48:59.990Z,1.91
2023-02-04T18:52:15.138Z,1.78
2023-02-04T18:55:27.983Z,1.76
2023-02-04T18:58:36.003Z,1.80
2023-02-04T19:01:40.858Z,1.81
2023-02-04T19:04:45.960Z,1.87
2023-02-04T19:07:51.352Z,1.95
2023-02-04T19:10:56.488Z,2.00
2023-02-04T19:14:01.379Z,1.98
2023-02-04T19:17:22.090Z,1.91
2023-02-04T19:20:26.950Z,1.87
2023-02-04T19:23:37.378Z,1.84
2023-02-04T19:26:43.326Z,1.81
2023-02-04T19:29:49.823Z,1.82
2023-02-04T19:32:55.989Z,1.76
2023-02-04T19:36:01.817Z,1.72
2023-02-04T19:39:08.743Z,1.73
2023-02-04T19:42:24.568Z,1.80
2023-02-04T19:45:29.249Z,1.83
2023-02-04T19:48:36.862Z,1.83
2023-02-04T19:51:41.667Z,1.81
2023-02-04T19:54:45.993Z,1.64
2023-02-04T19:59:33.921Z,1.52
2023-02-04T20:02:42.293Z,1.43
2023-02-04T20:12:05.876Z,1.21
2023-02-04T20:15:20.673Z,1.12
2023-02-04T20:18:29.166Z,1.07
2023-02-04T20:21:35.440Z,1.03
2023-02-04T20:24:42.070Z,1.02
2023-02-04T20:27:52.348Z,0.99
2023-02-04T20:31:01.820Z,1.02
2023-02-04T20:34:18.841Z,0.99
2023-02-04T20:37:27.827Z,1.01
2023-02-04T20:40:37.175Z,1.01
2023-02-04T20:43:44.427Z,1.06
2023-02-04T20:46:50.841Z,1.07
2023-02-04T20:49:58.861Z,1.07
2023-02-04T20:53:17.907Z,1.05
2023-02-04T20:56:28.342Z,1.05
2023-02-04T20:59:36.566Z,1.08
2023-02-04T21:02:42.771Z,1.08
2023-02-04T21:05:50.336Z,1.06
2023-02-04T21:08:58.501Z,1.04
2023-02-04T21:12:06.053Z,1.02
2023-02-04T21:15:13.254Z,1.03
2023-02-04T21:18:19.982Z,1.04
2023-02-04T21:21:27.536Z,1.07
2023-02-04T21:24:34.949Z,1.03
2023-02-04T21:27:41.293Z,1.00
2023-02-04T21:30:45.839Z,1.01
2023-02-04T21:33:51.952Z,1.01
2023-02-04T21:36:58.230Z,1.00
2023-02-04T21:40:02.649Z,1.00
2023-02-04T21:43:08.884Z,1.00
2023-02-04T21:46:15.590Z,1.09
2023-02-04T21:49:21.796Z,1.18
2023-02-04T21:52:28.097Z,1.24
2023-02-04T21:55:32.783Z,1.27
2023-02-04T21:58:39.713Z,1.30
2023-02-04T22:01:45.831Z,1.38
2023-02-04T22:04:52.431Z,1.47
2023-02-04T22:07:59.886Z,1.50
2023-02-04T22:11:06.350Z,1.52
2023-02-04T22:14:10.965Z,1.51
2023-02-04T22:17:17.218Z,1.44
2023-02-04T22:20:22.328Z,1.43
2023-02-04T22:23:28.754Z,1.37
2023-02-04T22:26:35.030Z,1.36
2023-02-04T22:29:39.344Z,1.36
2023-02-04T22:32:46.153Z,1.35
2023-02-04T22:35:52.364Z,1.31
2023-02-04T22:38:58.653Z,1.24
2023-02-04T22:42:03.191Z,1.22
2023-02-04T22:45:11.477Z,1.23
2023-02-04T22:48:17.704Z,1.30
2023-02-04T22:51:24.340Z,1.31
2023-02-04T22:54:30.472Z,1.27
2023-02-04T22:57:36.765Z,1.22
2023-02-04T23:00:41.934Z,1.13
2023-02-04T23:03:48.970Z,1.03
2023-02-04T23:06:55.782Z,1.01
2023-02-04T23:10:02.328Z,1.00
2023-02-04T23:13:08.713Z,0.98
2023-02-04T23:16:15.015Z,0.94
2023-02-04T23:19:19.540Z,0.88
2023-02-04T23:22:25.825Z,0.85
2023-02-04T23:25:30.633Z,0.85
2023-02-04T23:28:37.142Z,0.79
2023-02-04T23:31:43.181Z,0.75
2023-02-04T23:34:49.473Z,0.72
2023-02-04T23:37:53.780Z,0.71
2023-02-04T23:41:00.205Z,0.70
2023-02-04T23:44:06.750Z,0.69
2023-02-04T23:47:12.930Z,0.67
2023-02-04T23:50:20.138Z,0.60
2023-02-04T23:53:26.432Z,0.57
2023-02-04T23:56:31.025Z,0.54
2023-02-04T23:59:40.938Z,0.49
